Flugplatz Nannhausen

Für EDRN sind keine METAR/TAF Berichte vorhanden.
Es werden die Flugwettermeldungen vom Flugplatz Frankfurt-Hahn in 15 km Entfernung angezeigt.

Bericht für EDFH

vom 28.09. um 23:20 UTC

Wind 7 kt aus 140°

Sichtweite 10 km oder mehr

gering bewölkt in 4000 ft

Temperatur 10.0°C

Taupunkt 7.0°C

Luftfeuchtigkeit 82%

Luftdruck 1019 hPa

EDFH 282320Z 14007KT 9999 FEW040 10/07 Q1019
Keine Prognose (TAF) verfügbar.
Impressum